sensor_id;sensor_type;location;lat;lon;timestamp;temperature;humidity
19561;DHT22;9927;47.792;10.616;2023-04-19T03:00:53;9.20;99.90
19561;DHT22;9927;47.792;10.616;2023-04-19T03:03:20;9.20;99.90
19561;DHT22;9927;47.792;10.616;2023-04-19T03:05:48;9.10;99.90
19561;DHT22;9927;47.792;10.616;2023-04-19T03:08:15;9.00;99.90
19561;DHT22;9927;47.792;10.616;2023-04-19T03:10:43;9.00;99.90
19561;DHT22;9927;47.792;10.616;2023-04-19T03:13:10;9.00;99.90
19561;DHT22;9927;47.792;10.616;2023-04-19T03:15:38;9.00;99.90
19561;DHT22;9927;47.792;10.616;2023-04-19T03:18:05;9.00;99.90
19561;DHT22;9927;47.792;10.616;2023-04-19T03:20:32;9.00;99.90
19561;DHT22;9927;47.792;10.616;2023-04-19T03:23:00;9.00;99.90
19561;DHT22;9927;47.792;10.616;2023-04-19T03:25:28;9.00;99.90
19561;DHT22;9927;47.792;10.616;2023-04-19T03:27:55;9.10;99.90
19561;DHT22;9927;47.792;10.616;2023-04-19T03:30:23;9.10;99.90
19561;DHT22;9927;47.792;10.616;2023-04-19T03:32:51;9.10;99.90
19561;DHT22;9927;47.792;10.616;2023-04-19T03:35:19;9.10;99.90
19561;DHT22;9927;47.792;10.616;2023-04-19T03:37:47;9.10;99.90
19561;DHT22;9927;47.792;10.616;2023-04-19T03:40:14;9.10;99.90
19561;DHT22;9927;47.792;10.616;2023-04-19T03:42:41;9.00;99.90
19561;DHT22;9927;47.792;10.616;2023-04-19T03:45:09;9.10;99.90
19561;DHT22;9927;47.792;10.616;2023-04-19T03:47:36;9.10;99.90
19561;DHT22;9927;47.792;10.616;2023-04-19T03:50:04;9.10;99.90
19561;DHT22;9927;47.792;10.616;2023-04-19T03:52:31;9.20;99.90
19561;DHT22;9927;47.792;10.616;2023-04-19T03:54:58;9.00;99.90
19561;DHT22;9927;47.792;10.616;2023-04-19T03:57:25;9.00;99.90
19561;DHT22;9927;47.792;10.616;2023-04-19T03:59:52;9.00;99.90
19561;DHT22;9927;47.792;10.616;2023-04-19T04:02:20;9.00;99.90
19561;DHT22;9927;47.792;10.616;2023-04-19T04:04:55;9.00;99.90
19561;DHT22;9927;47.792;10.616;2023-04-19T04:07:22;9.10;99.90
19561;DHT22;9927;47.792;10.616;2023-04-19T04:09:50;9.10;99.90
19561;DHT22;9927;47.792;10.616;2023-04-19T04:12:17;9.00;99.90
19561;DHT22;9927;47.792;10.616;2023-04-19T04:14:45;9.10;99.90
19561;DHT22;9927;47.792;10.616;2023-04-19T04:17:12;9.10;99.90
19561;DHT22;9927;47.792;10.616;2023-04-19T04:19:39;9.10;99.90
19561;DHT22;9927;47.792;10.616;2023-04-19T04:22:06;9.10;99.90
19561;DHT22;9927;47.792;10.616;2023-04-19T04:24:38;9.30;99.90
19561;DHT22;9927;47.792;10.616;2023-04-19T04:27:07;9.20;99.90
19561;DHT22;9927;47.792;10.616;2023-04-19T04:29:39;9.20;99.90
19561;DHT22;9927;47.792;10.616;2023-04-19T04:32:07;9.10;99.90
19561;DHT22;9927;47.792;10.616;2023-04-19T04:34:38;9.10;99.90
19561;DHT22;9927;47.792;10.616;2023-04-19T04:37:05;9.20;99.90
19561;DHT22;9927;47.792;10.616;2023-04-19T04:39:34;9.10;99.90
19561;DHT22;9927;47.792;10.616;2023-04-19T04:42:05;9.10;99.90
19561;DHT22;9927;47.792;10.616;2023-04-19T04:44:35;9.00;99.90
19561;DHT22;9927;47.792;10.616;2023-04-19T04:47:02;9.00;99.90
19561;DHT22;9927;47.792;10.616;2023-04-19T04:49:29;9.10;99.90
19561;DHT22;9927;47.792;10.616;2023-04-19T04:51:57;9.10;99.90
19561;DHT22;9927;47.792;10.616;2023-04-19T04:54:24;8.90;99.90
19561;DHT22;9927;47.792;10.616;2023-04-19T04:56:51;8.90;99.90
19561;DHT22;9927;47.792;10.616;2023-04-19T04:59:19;8.90;99.90
19561;DHT22;9927;47.792;10.616;2023-04-19T05:01:46;9.00;99.90
19561;DHT22;9927;47.792;10.616;2023-04-19T05:04:13;9.00;99.90
19561;DHT22;9927;47.792;10.616;2023-04-19T05:06:41;9.00;99.90
19561;DHT22;9927;47.792;10.616;2023-04-19T05:09:10;9.00;99.90
19561;DHT22;9927;47.792;10.616;2023-04-19T05:11:37;9.00;99.90
19561;DHT22;9927;47.792;10.616;2023-04-19T05:14:04;9.00;99.90
19561;DHT22;9927;47.792;10.616;2023-04-19T05:16:32;9.10;99.90
19561;DHT22;9927;47.792;10.616;2023-04-19T05:19:00;9.10;99.90
19561;DHT22;9927;47.792;10.616;2023-04-19T05:21:27;9.20;99.90
19561;DHT22;9927;47.792;10.616;2023-04-19T05:23:54;9.20;99.90
19561;DHT22;9927;47.792;10.616;2023-04-19T05:26:21;9.30;99.90
19561;DHT22;9927;47.792;10.616;2023-04-19T05:28:48;9.30;99.90
19561;DHT22;9927;47.792;10.616;2023-04-19T05:31:16;9.30;99.90
19561;DHT22;9927;47.792;10.616;2023-04-19T05:33:44;9.30;99.90
19561;DHT22;9927;47.792;10.616;2023-04-19T05:36:11;9.30;99.90
19561;DHT22;9927;47.792;10.616;2023-04-19T05:38:38;9.30;99.90
19561;DHT22;9927;47.792;10.616;2023-04-19T05:41:05;9.30;99.90
19561;DHT22;9927;47.792;10.616;2023-04-19T05:43:33;9.20;99.90
19561;DHT22;9927;47.792;10.616;2023-04-19T05:46:00;9.20;99.90
19561;DHT22;9927;47.792;10.616;2023-04-19T05:48:27;9.20;99.90
19561;DHT22;9927;47.792;10.616;2023-04-19T05:50:54;9.20;99.90
19561;DHT22;9927;47.792;10.616;2023-04-19T05:53:24;9.20;99.90
19561;DHT22;9927;47.792;10.616;2023-04-19T05:55:51;9.30;99.90
19561;DHT22;9927;47.792;10.616;2023-04-19T05:58:18;9.30;99.90
19561;DHT22;9927;47.792;10.616;2023-04-19T06:00:45;9.30;99.90
19561;DHT22;9927;47.792;10.616;2023-04-19T06:03:13;9.30;99.90
19561;DHT22;9927;47.792;10.616;2023-04-19T06:05:40;9.40;99.90
19561;DHT22;9927;47.792;10.616;2023-04-19T06:08:08;9.40;99.90
19561;DHT22;9927;47.792;10.616;2023-04-19T06:10:36;9.40;99.90
19561;DHT22;9927;47.792;10.616;2023-04-19T06:13:21;9.20;99.90
19561;DHT22;9927;47.792;10.616;2023-04-19T06:15:48;9.20;99.90
19561;DHT22;9927;47.792;10.616;2023-04-19T06:18:16;9.20;99.90
19561;DHT22;9927;47.792;10.616;2023-04-19T06:20:45;9.10;99.90
19561;DHT22;9927;47.792;10.616;2023-04-19T06:23:13;9.10;99.90
19561;DHT22;9927;47.792;10.616;2023-04-19T06:25:41;9.00;99.90
19561;DHT22;9927;47.792;10.616;2023-04-19T06:28:08;9.00;99.90
19561;DHT22;9927;47.792;10.616;2023-04-19T06:30:35;9.10;99.90
19561;DHT22;9927;47.792;10.616;2023-04-19T06:33:03;9.10;99.90
19561;DHT22;9927;47.792;10.616;2023-04-19T06:35:30;9.20;99.90
19561;DHT22;9927;47.792;10.616;2023-04-19T06:37:58;9.20;99.90
19561;DHT22;9927;47.792;10.616;2023-04-19T06:40:26;9.20;99.90
19561;DHT22;9927;47.792;10.616;2023-04-19T06:42:55;9.30;99.90
19561;DHT22;9927;47.792;10.616;2023-04-19T06:45:22;9.30;99.90
19561;DHT22;9927;47.792;10.616;2023-04-19T06:47:49;9.50;99.90
19561;DHT22;9927;47.792;10.616;2023-04-19T06:50:17;9.50;99.90
19561;DHT22;9927;47.792;10.616;2023-04-19T06:52:44;9.50;99.90
19561;DHT22;9927;47.792;10.616;2023-04-19T06:55:11;9.60;99.90
19561;DHT22;9927;47.792;10.616;2023-04-19T06:57:38;9.60;99.90
19561;DHT22;9927;47.792;10.616;2023-04-19T07:00:06;9.70;99.90
19561;DHT22;9927;47.792;10.616;2023-04-19T07:02:34;9.80;99.90
19561;DHT22;9927;47.792;10.616;2023-04-19T07:05:01;9.80;99.90
19561;DHT22;9927;47.792;10.616;2023-04-19T07:07:29;9.80;99.90
19561;DHT22;9927;47.792;10.616;2023-04-19T07:09:57;9.90;99.90
19561;DHT22;9927;47.792;10.616;2023-04-19T07:12:24;9.90;99.90
19561;DHT22;9927;47.792;10.616;2023-04-19T07:14:51;10.00;99.90
19561;DHT22;9927;47.792;10.616;2023-04-19T07:17:22;10.20;99.90
19561;DHT22;9927;47.792;10.616;2023-04-19T07:19:50;10.40;99.90
19561;DHT22;9927;47.792;10.616;2023-04-19T07:22:17;10.50;99.90
19561;DHT22;9927;47.792;10.616;2023-04-19T07:24:44;10.70;99.90
19561;DHT22;9927;47.792;10.616;2023-04-19T07:27:12;10.70;99.90
19561;DHT22;9927;47.792;10.616;2023-04-19T07:29:40;10.80;99.90
19561;DHT22;9927;47.792;10.616;2023-04-19T07:32:07;10.80;99.90
19561;DHT22;9927;47.792;10.616;2023-04-19T07:34:36;10.90;99.90
19561;DHT22;9927;47.792;10.616;2023-04-19T07:37:04;10.90;99.90
19561;DHT22;9927;47.792;10.616;2023-04-19T07:39:31;10.80;99.90
19561;DHT22;9927;47.792;10.616;2023-04-19T07:41:58;10.80;99.90
19561;DHT22;9927;47.792;10.616;2023-04-19T07:44:27;10.80;99.90
19561;DHT22;9927;47.792;10.616;2023-04-19T07:46:55;10.70;99.90
19561;DHT22;9927;47.792;10.616;2023-04-19T07:49:22;10.60;99.90
19561;DHT22;9927;47.792;10.616;2023-04-19T07:51:49;10.50;99.90
19561;DHT22;9927;47.792;10.616;2023-04-19T07:54:16;10.20;99.90
19561;DHT22;9927;47.792;10.616;2023-04-19T07:56:46;10.20;99.90
19561;DHT22;9927;47.792;10.616;2023-04-19T07:59:13;10.20;99.90
19561;DHT22;9927;47.792;10.616;2023-04-19T08:01:41;10.20;99.90
19561;DHT22;9927;47.792;10.616;2023-04-19T08:04:08;10.10;99.90
19561;DHT22;9927;47.792;10.616;2023-04-19T08:06:37;10.00;99.90
19561;DHT22;9927;47.792;10.616;2023-04-19T08:09:05;10.00;99.90
19561;DHT22;9927;47.792;10.616;2023-04-19T08:11:32;9.90;99.90
19561;DHT22;9927;47.792;10.616;2023-04-19T08:14:00;9.80;99.90
19561;DHT22;9927;47.792;10.616;2023-04-19T08:16:30;9.80;99.90
19561;DHT22;9927;47.792;10.616;2023-04-19T08:19:17;9.80;99.90
19561;DHT22;9927;47.792;10.616;2023-04-19T08:21:44;10.10;99.90
19561;DHT22;9927;47.792;10.616;2023-04-19T08:24:11;10.20;99.90
19561;DHT22;9927;47.792;10.616;2023-04-19T08:26:39;10.20;99.90
19561;DHT22;9927;47.792;10.616;2023-04-19T08:29:06;10.20;99.90
19561;DHT22;9927;47.792;10.616;2023-04-19T08:31:33;10.20;99.90
19561;DHT22;9927;47.792;10.616;2023-04-19T08:34:00;10.10;99.90
19561;DHT22;9927;47.792;10.616;2023-04-19T08:36:28;10.00;99.90
19561;DHT22;9927;47.792;10.616;2023-04-19T08:39:09;10.20;99.90
19561;DHT22;9927;47.792;10.616;2023-04-19T08:41:51;10.20;99.90
19561;DHT22;9927;47.792;10.616;2023-04-19T08:44:34;10.20;99.90
19561;DHT22;9927;47.792;10.616;2023-04-19T08:47:20;10.20;99.90
19561;DHT22;9927;47.792;10.616;2023-04-19T08:50:00;10.20;99.90
19561;DHT22;9927;47.792;10.616;2023-04-19T08:52:43;10.20;99.90
19561;DHT22;9927;47.792;10.616;2023-04-19T08:55:23;10.20;99.90
19561;DHT22;9927;47.792;10.616;2023-04-19T08:57:50;10.30;99.90
19561;DHT22;9927;47.792;10.616;2023-04-19T09:00:19;10.30;99.90
19561;DHT22;9927;47.792;10.616;2023-04-19T09:02:51;10.20;99.90
19561;DHT22;9927;47.792;10.616;2023-04-19T09:05:19;10.30;99.90
19561;DHT22;9927;47.792;10.616;2023-04-19T09:07:47;10.30;99.90
19561;DHT22;9927;47.792;10.616;2023-04-19T09:10:17;10.20;99.90
19561;DHT22;9927;47.792;10.616;2023-04-19T09:13:04;10.20;99.90
19561;DHT22;9927;47.792;10.616;2023-04-19T09:15:39;10.20;99.90
19561;DHT22;9927;47.792;10.616;2023-04-19T09:18:08;10.30;99.90
19561;DHT22;9927;47.792;10.616;2023-04-19T09:20:36;10.20;99.90
19561;DHT22;9927;47.792;10.616;2023-04-19T09:23:07;10.30;99.90
19561;DHT22;9927;47.792;10.616;2023-04-19T09:25:34;10.30;99.90
19561;DHT22;9927;47.792;10.616;2023-04-19T09:28:22;10.40;99.90
19561;DHT22;9927;47.792;10.616;2023-04-19T09:30:50;10.40;99.90
19561;DHT22;9927;47.792;10.616;2023-04-19T09:33:34;10.40;99.90
19561;DHT22;9927;47.792;10.616;2023-04-19T09:36:03;10.50;99.90
19561;DHT22;9927;47.792;10.616;2023-04-19T09:38:46;10.40;99.90
19561;DHT22;9927;47.792;10.616;2023-04-19T09:41:15;10.30;99.90
19561;DHT22;9927;47.792;10.616;2023-04-19T09:43:43;10.20;99.90
19561;DHT22;9927;47.792;10.616;2023-04-19T09:46:35;10.10;99.90
19561;DHT22;9927;47.792;10.616;2023-04-19T09:49:19;10.20;99.90
19561;DHT22;9927;47.792;10.616;2023-04-19T09:52:04;10.30;99.90
19561;DHT22;9927;47.792;10.616;2023-04-19T09:54:31;10.70;99.90
19561;DHT22;9927;47.792;10.616;2023-04-19T09:57:00;10.80;99.90
19561;DHT22;9927;47.792;10.616;2023-04-19T09:59:28;10.90;99.90
19561;DHT22;9927;47.792;10.616;2023-04-19T10:01:55;10.90;99.90
19561;DHT22;9927;47.792;10.616;2023-04-19T10:04:25;10.70;99.90
19561;DHT22;9927;47.792;10.616;2023-04-19T10:07:14;10.70;99.90
19561;DHT22;9927;47.792;10.616;2023-04-19T10:09:45;10.80;99.90
19561;DHT22;9927;47.792;10.616;2023-04-19T10:12:23;10.80;99.90
19561;DHT22;9927;47.792;10.616;2023-04-19T10:14:55;10.60;99.90
19561;DHT22;9927;47.792;10.616;2023-04-19T10:17:23;10.50;99.90
19561;DHT22;9927;47.792;10.616;2023-04-19T10:19:56;10.50;99.90
19561;DHT22;9927;47.792;10.616;2023-04-19T10:22:25;10.60;99.90
19561;DHT22;9927;47.792;10.616;2023-04-19T10:25:29;10.50;99.90
19561;DHT22;9927;47.792;10.616;2023-04-19T10:27:56;10.60;99.90
19561;DHT22;9927;47.792;10.616;2023-04-19T10:30:24;10.60;99.90
19561;DHT22;9927;47.792;10.616;2023-04-19T10:32:58;10.70;99.90
19561;DHT22;9927;47.792;10.616;2023-04-19T10:35:28;10.80;99.90
19561;DHT22;9927;47.792;10.616;2023-04-19T10:38:07;10.60;99.90
19561;DHT22;9927;47.792;10.616;2023-04-19T10:40:53;10.60;99.90
19561;DHT22;9927;47.792;10.616;2023-04-19T10:43:23;10.60;99.90
19561;DHT22;9927;47.792;10.616;2023-04-19T10:45:52;10.50;99.90
19561;DHT22;9927;47.792;10.616;2023-04-19T10:51:04;10.40;99.90
19561;DHT22;9927;47.792;10.616;2023-04-19T10:56:57;10.70;99.90
19561;DHT22;9927;47.792;10.616;2023-04-19T10:59:27;10.80;99.90
19561;DHT22;9927;47.792;10.616;2023-04-19T11:01:57;11.10;99.90
19561;DHT22;9927;47.792;10.616;2023-04-19T11:07:07;11.10;99.90
19561;DHT22;9927;47.792;10.616;2023-04-19T11:09:36;11.10;99.90
19561;DHT22;9927;47.792;10.616;2023-04-19T11:12:06;11.10;99.90
19561;DHT22;9927;47.792;10.616;2023-04-19T11:14:42;10.80;99.90
19561;DHT22;9927;47.792;10.616;2023-04-19T11:17:15;10.80;99.90
19561;DHT22;9927;47.792;10.616;2023-04-19T11:22:30;10.60;99.90
19561;DHT22;9927;47.792;10.616;2023-04-19T11:25:17;10.40;99.90
19561;DHT22;9927;47.792;10.616;2023-04-19T11:30:16;10.40;99.90
19561;DHT22;9927;47.792;10.616;2023-04-19T11:32:53;10.40;99.90
19561;DHT22;9927;47.792;10.616;2023-04-19T11:35:25;10.40;99.90
19561;DHT22;9927;47.792;10.616;2023-04-19T11:37:54;10.40;99.90
19561;DHT22;9927;47.792;10.616;2023-04-19T11:40:23;10.30;99.90
19561;DHT22;9927;47.792;10.616;2023-04-19T11:42:59;10.30;99.90
19561;DHT22;9927;47.792;10.616;2023-04-19T11:45:27;10.10;99.90
19561;DHT22;9927;47.792;10.616;2023-04-19T11:47:59;10.10;99.90
19561;DHT22;9927;47.792;10.616;2023-04-19T11:50:38;10.10;99.90
19561;DHT22;9927;47.792;10.616;2023-04-19T11:53:22;10.00;99.90
19561;DHT22;9927;47.792;10.616;2023-04-19T11:55:54;9.90;99.90
19561;DHT22;9927;47.792;10.616;2023-04-19T12:00:51;9.90;99.90
19561;DHT22;9927;47.792;10.616;2023-04-19T12:03:22;9.90;99.90
19561;DHT22;9927;47.792;10.616;2023-04-19T12:05:58;10.00;99.90
19561;DHT22;9927;47.792;10.616;2023-04-19T12:08:30;10.10;99.90
19561;DHT22;9927;47.792;10.616;2023-04-19T12:10:58;10.20;99.90
19561;DHT22;9927;47.792;10.616;2023-04-19T12:13:26;10.10;99.90
19561;DHT22;9927;47.792;10.616;2023-04-19T12:15:53;10.10;99.90
19561;DHT22;9927;47.792;10.616;2023-04-19T12:18:20;10.00;99.90
19561;DHT22;9927;47.792;10.616;2023-04-19T12:20:49;10.00;99.90
19561;DHT22;9927;47.792;10.616;2023-04-19T12:23:19;10.10;99.90
19561;DHT22;9927;47.792;10.616;2023-04-19T12:25:47;10.00;99.90
19561;DHT22;9927;47.792;10.616;2023-04-19T12:28:15;9.90;99.90
19561;DHT22;9927;47.792;10.616;2023-04-19T12:30:43;10.00;99.90
19561;DHT22;9927;47.792;10.616;2023-04-19T12:33:10;10.20;99.90
19561;DHT22;9927;47.792;10.616;2023-04-19T12:35:37;10.40;99.90
19561;DHT22;9927;47.792;10.616;2023-04-19T12:38:05;10.50;99.90
19561;DHT22;9927;47.792;10.616;2023-04-19T12:40:33;10.60;99.90
19561;DHT22;9927;47.792;10.616;2023-04-19T12:43:00;10.70;99.90
19561;DHT22;9927;47.792;10.616;2023-04-19T12:45:27;10.80;99.90
19561;DHT22;9927;47.792;10.616;2023-04-19T12:47:55;11.00;99.90
19561;DHT22;9927;47.792;10.616;2023-04-19T12:50:23;11.10;99.90
19561;DHT22;9927;47.792;10.616;2023-04-19T12:52:50;11.10;99.90
19561;DHT22;9927;47.792;10.616;2023-04-19T12:55:19;11.20;99.90
19561;DHT22;9927;47.792;10.616;2023-04-19T12:57:46;11.50;99.90
19561;DHT22;9927;47.792;10.616;2023-04-19T13:00:14;11.50;99.90
19561;DHT22;9927;47.792;10.616;2023-04-19T13:02:41;11.40;99.90
19561;DHT22;9927;47.792;10.616;2023-04-19T13:05:09;11.60;99.90
19561;DHT22;9927;47.792;10.616;2023-04-19T13:07:38;11.80;99.90
19561;DHT22;9927;47.792;10.616;2023-04-19T13:10:06;11.40;99.90
19561;DHT22;9927;47.792;10.616;2023-04-19T13:12:34;11.40;99.90
19561;DHT22;9927;47.792;10.616;2023-04-19T13:15:01;11.60;99.90
19561;DHT22;9927;47.792;10.616;2023-04-19T13:17:32;11.90;99.90
19561;DHT22;9927;47.792;10.616;2023-04-19T13:20:01;11.90;99.90
19561;DHT22;9927;47.792;10.616;2023-04-19T13:22:29;12.20;99.90
19561;DHT22;9927;47.792;10.616;2023-04-19T13:24:57;12.40;99.90
19561;DHT22;9927;47.792;10.616;2023-04-19T13:27:24;12.30;99.90
19561;DHT22;9927;47.792;10.616;2023-04-19T13:29:54;12.10;99.90
19561;DHT22;9927;47.792;10.616;2023-04-19T13:32:22;12.30;99.90
19561;DHT22;9927;47.792;10.616;2023-04-19T13:34:49;12.50;99.90
19561;DHT22;9927;47.792;10.616;2023-04-19T13:37:16;12.50;99.90
19561;DHT22;9927;47.792;10.616;2023-04-19T13:39:43;12.60;99.90
19561;DHT22;9927;47.792;10.616;2023-04-19T13:42:11;12.70;99.90
19561;DHT22;9927;47.792;10.616;2023-04-19T13:44:40;12.50;99.90
19561;DHT22;9927;47.792;10.616;2023-04-19T13:47:07;12.60;99.90
19561;DHT22;9927;47.792;10.616;2023-04-19T13:49:34;12.80;99.90
19561;DHT22;9927;47.792;10.616;2023-04-19T13:52:01;13.00;99.90
19561;DHT22;9927;47.792;10.616;2023-04-19T13:54:29;12.60;99.90
19561;DHT22;9927;47.792;10.616;2023-04-19T13:56:56;12.60;99.90
19561;DHT22;9927;47.792;10.616;2023-04-19T13:59:24;12.30;99.90
19561;DHT22;9927;47.792;10.616;2023-04-19T14:01:52;12.00;99.90
19561;DHT22;9927;47.792;10.616;2023-04-19T14:04:23;11.80;99.90
19561;DHT22;9927;47.792;10.616;2023-04-19T14:06:51;11.80;99.90
19561;DHT22;9927;47.792;10.616;2023-04-19T14:09:18;11.80;99.90
19561;DHT22;9927;47.792;10.616;2023-04-19T14:11:45;11.70;99.90
19561;DHT22;9927;47.792;10.616;2023-04-19T14:14:14;11.40;99.90
19561;DHT22;9927;47.792;10.616;2023-04-19T14:16:42;11.00;99.90
19561;DHT22;9927;47.792;10.616;2023-04-19T14:19:10;10.50;99.90
19561;DHT22;9927;47.792;10.616;2023-04-19T14:21:38;10.10;99.90
19561;DHT22;9927;47.792;10.616;2023-04-19T14:24:05;9.70;99.90
19561;DHT22;9927;47.792;10.616;2023-04-19T14:26:32;9.50;99.90
19561;DHT22;9927;47.792;10.616;2023-04-19T14:28:59;9.40;99.90
19561;DHT22;9927;47.792;10.616;2023-04-19T14:31:26;9.30;99.90
19561;DHT22;9927;47.792;10.616;2023-04-19T14:33:54;9.20;99.90
19561;DHT22;9927;47.792;10.616;2023-04-19T14:36:21;8.60;99.90
19561;DHT22;9927;47.792;10.616;2023-04-19T14:38:48;8.20;99.90
19561;DHT22;9927;47.792;10.616;2023-04-19T14:41:17;7.90;99.90
19561;DHT22;9927;47.792;10.616;2023-04-19T14:43:44;7.80;99.90
19561;DHT22;9927;47.792;10.616;2023-04-19T14:46:12;7.70;99.90
19561;DHT22;9927;47.792;10.616;2023-04-19T14:48:39;7.70;99.90
19561;DHT22;9927;47.792;10.616;2023-04-19T14:51:06;7.60;99.90
19561;DHT22;9927;47.792;10.616;2023-04-19T14:53:33;7.70;99.90
19561;DHT22;9927;47.792;10.616;2023-04-19T14:56:03;7.80;99.90
19561;DHT22;9927;47.792;10.616;2023-04-19T14:58:31;7.70;99.90
19561;DHT22;9927;47.792;10.616;2023-04-19T15:00:58;7.70;99.90
19561;DHT22;9927;47.792;10.616;2023-04-19T15:03:26;7.80;99.90
19561;DHT22;9927;47.792;10.616;2023-04-19T15:05:53;7.80;99.90
19561;DHT22;9927;47.792;10.616;2023-04-19T15:08:20;7.80;99.90
19561;DHT22;9927;47.792;10.616;2023-04-19T15:10:56;7.70;99.90
19561;DHT22;9927;47.792;10.616;2023-04-19T15:13:24;7.60;99.90
19561;DHT22;9927;47.792;10.616;2023-04-19T15:15:51;7.60;99.90
19561;DHT22;9927;47.792;10.616;2023-04-19T15:18:18;7.50;99.90
19561;DHT22;9927;47.792;10.616;2023-04-19T15:20:46;7.60;99.90
19561;DHT22;9927;47.792;10.616;2023-04-19T15:23:13;7.50;99.90
19561;DHT22;9927;47.792;10.616;2023-04-19T15:25:40;7.50;99.90
19561;DHT22;9927;47.792;10.616;2023-04-19T15:28:07;7.50;99.90
19561;DHT22;9927;47.792;10.616;2023-04-19T15:30:35;7.50;99.90
19561;DHT22;9927;47.792;10.616;2023-04-19T15:33:02;7.40;99.90
19561;DHT22;9927;47.792;10.616;2023-04-19T15:35:29;7.40;99.90
19561;DHT22;9927;47.792;10.616;2023-04-19T15:37:58;7.30;99.90
19561;DHT22;9927;47.792;10.616;2023-04-19T15:40:25;7.30;99.90
19561;DHT22;9927;47.792;10.616;2023-04-19T15:42:54;7.40;99.90
19561;DHT22;9927;47.792;10.616;2023-04-19T15:45:21;7.30;99.90
19561;DHT22;9927;47.792;10.616;2023-04-19T15:47:49;7.30;99.90
19561;DHT22;9927;47.792;10.616;2023-04-19T15:50:16;7.40;99.90
19561;DHT22;9927;47.792;10.616;2023-04-19T15:52:43;7.30;99.90
19561;DHT22;9927;47.792;10.616;2023-04-19T15:55:11;7.20;99.90
19561;DHT22;9927;47.792;10.616;2023-04-19T15:57:38;7.20;99.90
19561;DHT22;9927;47.792;10.616;2023-04-19T16:00:06;7.20;99.90
19561;DHT22;9927;47.792;10.616;2023-04-19T16:02:35;7.20;99.90
19561;DHT22;9927;47.792;10.616;2023-04-19T16:05:03;7.00;99.90
19561;DHT22;9927;47.792;10.616;2023-04-19T16:07:30;7.00;99.90
19561;DHT22;9927;47.792;10.616;2023-04-19T16:09:57;7.10;99.90
19561;DHT22;9927;47.792;10.616;2023-04-19T16:12:26;7.10;99.90
19561;DHT22;9927;47.792;10.616;2023-04-19T16:14:53;7.00;99.90
19561;DHT22;9927;47.792;10.616;2023-04-19T16:17:20;6.90;99.90
19561;DHT22;9927;47.792;10.616;2023-04-19T16:19:47;6.90;99.90
19561;DHT22;9927;47.792;10.616;2023-04-19T16:22:15;6.90;99.90
19561;DHT22;9927;47.792;10.616;2023-04-19T16:24:42;6.80;99.90
19561;DHT22;9927;47.792;10.616;2023-04-19T16:27:09;6.80;99.90
19561;DHT22;9927;47.792;10.616;2023-04-19T16:29:36;6.80;99.90
19561;DHT22;9927;47.792;10.616;2023-04-19T16:32:04;6.80;99.90
19561;DHT22;9927;47.792;10.616;2023-04-19T16:34:32;6.70;99.90
19561;DHT22;9927;47.792;10.616;2023-04-19T16:36:59;6.60;99.90
19561;DHT22;9927;47.792;10.616;2023-04-19T16:39:26;6.50;99.90
19561;DHT22;9927;47.792;10.616;2023-04-19T16:41:54;6.40;99.90
19561;DHT22;9927;47.792;10.616;2023-04-19T16:44:21;6.40;99.90
19561;DHT22;9927;47.792;10.616;2023-04-19T16:46:48;6.30;99.90
19561;DHT22;9927;47.792;10.616;2023-04-19T16:49:15;6.20;99.90
19561;DHT22;9927;47.792;10.616;2023-04-19T16:51:43;6.30;99.90
19561;DHT22;9927;47.792;10.616;2023-04-19T16:54:12;6.30;99.90
19561;DHT22;9927;47.792;10.616;2023-04-19T16:56:39;6.20;99.90
19561;DHT22;9927;47.792;10.616;2023-04-19T16:59:06;6.30;99.90
19561;DHT22;9927;47.792;10.616;2023-04-19T17:01:33;6.10;99.90
19561;DHT22;9927;47.792;10.616;2023-04-19T17:04:01;6.10;99.90
19561;DHT22;9927;47.792;10.616;2023-04-19T17:06:28;6.10;99.90
19561;DHT22;9927;47.792;10.616;2023-04-19T17:08:56;6.00;99.90
19561;DHT22;9927;47.792;10.616;2023-04-19T17:11:23;6.00;99.90
19561;DHT22;9927;47.792;10.616;2023-04-19T17:13:51;6.00;99.90
19561;DHT22;9927;47.792;10.616;2023-04-19T17:16:21;5.90;99.90
19561;DHT22;9927;47.792;10.616;2023-04-19T17:18:48;5.80;99.90
19561;DHT22;9927;47.792;10.616;2023-04-19T17:21:15;5.70;99.90
19561;DHT22;9927;47.792;10.616;2023-04-19T17:23:44;5.60;99.90
19561;DHT22;9927;47.792;10.616;2023-04-19T17:26:11;5.50;99.90
19561;DHT22;9927;47.792;10.616;2023-04-19T17:28:39;5.50;99.90
19561;DHT22;9927;47.792;10.616;2023-04-19T17:31:08;5.30;99.90
19561;DHT22;9927;47.792;10.616;2023-04-19T17:33:35;5.20;99.90
19561;DHT22;9927;47.792;10.616;2023-04-19T17:36:05;5.20;99.90
19561;DHT22;9927;47.792;10.616;2023-04-19T17:38:32;5.20;99.90
19561;DHT22;9927;47.792;10.616;2023-04-19T17:41:00;5.10;99.90
19561;DHT22;9927;47.792;10.616;2023-04-19T17:43:28;5.10;99.90
19561;DHT22;9927;47.792;10.616;2023-04-19T17:45:56;5.00;99.90
19561;DHT22;9927;47.792;10.616;2023-04-19T17:48:24;4.90;99.90
19561;DHT22;9927;47.792;10.616;2023-04-19T17:50:51;4.80;99.90
19561;DHT22;9927;47.792;10.616;2023-04-19T17:53:18;4.70;99.90
19561;DHT22;9927;47.792;10.616;2023-04-19T17:55:45;4.60;99.90
19561;DHT22;9927;47.792;10.616;2023-04-19T17:58:12;4.70;99.90
19561;DHT22;9927;47.792;10.616;2023-04-19T18:00:40;4.60;99.90
19561;DHT22;9927;47.792;10.616;2023-04-19T18:03:07;4.60;99.90
19561;DHT22;9927;47.792;10.616;2023-04-19T18:05:41;4.50;99.90
19561;DHT22;9927;47.792;10.616;2023-04-19T18:08:08;4.50;99.90
19561;DHT22;9927;47.792;10.616;2023-04-19T18:10:36;4.40;99.90
19561;DHT22;9927;47.792;10.616;2023-04-19T18:13:03;4.50;99.90
19561;DHT22;9927;47.792;10.616;2023-04-19T18:15:30;4.50;99.90
19561;DHT22;9927;47.792;10.616;2023-04-19T18:17:57;4.50;99.90
19561;DHT22;9927;47.792;10.616;2023-04-19T18:20:25;4.60;99.90
19561;DHT22;9927;47.792;10.616;2023-04-19T18:22:52;4.60;99.90
19561;DHT22;9927;47.792;10.616;2023-04-19T18:25:20;4.70;99.90
19561;DHT22;9927;47.792;10.616;2023-04-19T18:27:47;4.70;99.90
19561;DHT22;9927;47.792;10.616;2023-04-19T18:30:15;4.80;99.90
19561;DHT22;9927;47.792;10.616;2023-04-19T18:32:42;4.80;99.90
19561;DHT22;9927;47.792;10.616;2023-04-19T18:35:13;4.70;99.90
19561;DHT22;9927;47.792;10.616;2023-04-19T18:37:41;4.70;99.90
19561;DHT22;9927;47.792;10.616;2023-04-19T18:40:09;4.80;99.90
19561;DHT22;9927;47.792;10.616;2023-04-19T18:42:37;4.80;99.90
19561;DHT22;9927;47.792;10.616;2023-04-19T18:45:04;4.90;99.90
19561;DHT22;9927;47.792;10.616;2023-04-19T18:47:32;4.90;99.90
19561;DHT22;9927;47.792;10.616;2023-04-19T18:49:59;4.90;99.90
19561;DHT22;9927;47.792;10.616;2023-04-19T18:52:33;4.90;99.90
19561;DHT22;9927;47.792;10.616;2023-04-19T18:55:02;4.50;99.90
19561;DHT22;9927;47.792;10.616;2023-04-19T18:57:29;4.50;99.90
19561;DHT22;9927;47.792;10.616;2023-04-19T19:00:02;4.50;99.90
19561;DHT22;9927;47.792;10.616;2023-04-19T19:02:32;4.30;99.90
19561;DHT22;9927;47.792;10.616;2023-04-19T19:05:03;4.40;99.90
19561;DHT22;9927;47.792;10.616;2023-04-19T19:07:33;4.40;99.90